Time;durP1;ratioP1;P1;durP2;ratioP2;P2;SDS_P1;SDS_P2;PMS_P1;PMS_P2;Temp;Humidity;BMP_temperature;BMP_pressure;BME280_temperature;BME280_humidity;BME280_pressure;Samples;Min_cycle;Max_cycle;Signal;HPM_P1;HPM_P2
2021/01/05 00:01:20;;;;;;;45.63;22.42;;;3.40;99.90;;;;;;5054276;28;20715;-44
2021/01/05 00:03:47;;;;;;;40.78;20.30;;;3.20;99.90;;;;;;5054072;28;20562;-46
2021/01/05 00:06:14;;;;;;;39.78;22.80;;;3.10;99.90;;;;;;5054442;28;20215;-43
2021/01/05 00:08:41;;;;;;;41.47;20.95;;;3.30;99.90;;;;;;5054329;28;20196;-47
2021/01/05 00:11:08;;;;;;;43.88;22.73;;;3.50;99.90;;;;;;5054191;28;20226;-44
2021/01/05 00:13:34;;;;;;;43.55;21.60;;;3.30;99.90;;;;;;5053955;28;20243;-47
2021/01/05 00:16:01;;;;;;;44.50;21.42;;;3.40;99.90;;;;;;5052584;28;20203;-47
2021/01/05 00:18:27;;;;;;;46.03;22.13;;;3.50;99.90;;;;;;5053208;28;20636;-47
2021/01/05 00:20:54;;;;;;;37.92;19.67;;;3.50;99.90;;;;;;5053789;28;20631;-47
2021/01/05 00:23:21;;;;;;;36.63;19.55;;;3.20;99.90;;;;;;5053446;28;20188;-47
2021/01/05 00:25:49;;;;;;;39.90;20.67;;;3.40;99.90;;;;;;5054019;28;20659;-45
2021/01/05 00:28:15;;;;;;;36.15;18.48;;;3.10;99.90;;;;;;5053666;28;20452;-45
2021/01/05 00:30:41;;;;;;;42.30;19.50;;;3.40;99.90;;;;;;5053795;28;20226;-47
2021/01/05 00:33:09;;;;;;;38.08;19.27;;;3.30;99.90;;;;;;5053457;28;20195;-45
2021/01/05 00:35:39;;;;;;;37.58;20.10;;;3.00;99.90;;;;;;5053771;28;20189;-46
2021/01/05 00:38:07;;;;;;;35.40;19.08;;;3.00;99.90;;;;;;5053453;28;20234;-46
2021/01/05 00:40:34;;;;;;;30.50;18.17;;;3.20;99.90;;;;;;5053514;28;20315;-47
2021/01/05 00:43:02;;;;;;;31.48;18.55;;;3.40;99.90;;;;;;5053295;28;20607;-44
2021/01/05 00:45:30;;;;;;;31.75;17.83;;;3.30;99.90;;;;;;5053211;28;20188;-47
2021/01/05 00:47:57;;;;;;;35.05;19.40;;;3.60;99.90;;;;;;5053262;28;20219;-46
2021/01/05 00:50:24;;;;;;;33.53;19.65;;;3.30;99.90;;;;;;5052071;28;20287;-45
2021/01/05 00:52:51;;;;;;;29.33;18.25;;;3.20;99.90;;;;;;5051690;28;20243;-47
2021/01/05 00:55:19;;;;;;;32.50;19.08;;;3.40;99.90;;;;;;5052281;28;20206;-47
2021/01/05 00:57:48;;;;;;;27.27;17.80;;;3.40;99.90;;;;;;5052043;28;20284;-45
2021/01/05 01:00:20;;;;;;;29.38;18.17;;;3.40;99.90;;;;;;5051958;28;20288;-48
2021/01/05 01:02:49;;;;;;;31.63;17.90;;;3.50;99.90;;;;;;5051399;28;20784;-46
2021/01/05 01:05:17;;;;;;;29.35;18.85;;;3.40;99.90;;;;;;5051971;28;20669;-46
2021/01/05 01:07:44;;;;;;;30.65;18.98;;;3.40;99.90;;;;;;5054475;28;20215;-49
2021/01/05 01:10:12;;;;;;;29.27;18.20;;;3.30;99.90;;;;;;5056901;28;20286;-44
2021/01/05 01:12:39;;;;;;;36.60;20.25;;;3.20;99.90;;;;;;5052631;28;20223;-47
2021/01/05 01:15:08;;;;;;;28.85;18.92;;;3.20;99.90;;;;;;5051776;28;20228;-44
2021/01/05 01:17:36;;;;;;;31.08;18.77;;;3.20;99.90;;;;;;5052728;28;20223;-45
2021/01/05 01:20:05;;;;;;;35.15;20.00;;;2.90;99.90;;;;;;5052779;28;20200;-48
2021/01/05 01:22:34;;;;;;;34.92;20.08;;;3.00;99.90;;;;;;5052621;28;20243;-46
2021/01/05 01:25:09;;;;;;;34.33;20.50;;;3.10;99.90;;;;;;5051580;28;20613;-46
2021/01/05 01:27:39;;;;;;;34.35;19.92;;;3.20;99.90;;;;;;5051284;28;20227;-48
2021/01/05 01:30:09;;;;;;;30.75;19.08;;;3.00;99.90;;;;;;5050252;28;20219;-46
2021/01/05 01:32:47;;;;;;;32.08;20.27;;;3.10;99.90;;;;;;5050762;28;20320;-48
2021/01/05 01:35:16;;;;;;;30.75;19.45;;;3.30;99.90;;;;;;5051472;28;20211;-47
2021/01/05 01:37:45;;;;;;;34.10;19.77;;;3.20;99.90;;;;;;5051160;28;20192;-49
2021/01/05 01:40:14;;;;;;;30.90;19.67;;;3.20;99.90;;;;;;5051073;28;20210;-44
2021/01/05 01:42:40;;;;;;;33.40;20.52;;;3.30;99.90;;;;;;5050879;28;20220;-45
2021/01/05 01:45:09;;;;;;;33.55;20.25;;;3.00;99.90;;;;;;5051181;28;20215;-45
2021/01/05 01:47:37;;;;;;;33.00;21.20;;;3.00;99.90;;;;;;5050825;28;20319;-47
2021/01/05 01:50:14;;;;;;;34.85;20.50;;;3.30;99.90;;;;;;5051186;28;20202;-46
2021/01/05 01:53:18;;;;;;;35.90;21.17;;;3.10;99.90;;;;;;5050508;28;20224;-45
2021/01/05 01:56:01;;;;;;;40.50;20.85;;;3.40;99.90;;;;;;5036985;28;20208;-45
2021/01/05 01:58:49;;;;;;;32.17;19.55;;;3.30;99.90;;;;;;5051733;28;20200;-45
2021/01/05 02:01:25;;;;;;;37.35;21.13;;;3.10;99.90;;;;;;5052968;28;20302;-47
2021/01/05 02:04:40;;;;;;;38.35;21.98;;;3.40;99.90;;;;;;5051197;28;20219;-43
2021/01/05 02:07:44;;;;;;;30.85;20.27;;;3.20;99.90;;;;;;5011072;28;20221;-45
2021/01/05 02:10:47;;;;;;;37.75;21.13;;;3.40;99.90;;;;;;5010846;28;20216;-50
2021/01/05 02:13:28;;;;;;;30.55;19.85;;;3.40;99.90;;;;;;5042424;28;20227;-46
2021/01/05 02:16:16;;;;;;;34.97;20.20;;;3.20;99.90;;;;;;5051873;28;20207;-46
2021/01/05 02:18:45;;;;;;;32.60;19.42;;;3.50;99.90;;;;;;5051310;28;20203;-46
2021/01/05 02:21:23;;;;;;;31.70;19.63;;;3.10;99.90;;;;;;5051572;28;20306;-47
2021/01/05 02:24:09;;;;;;;35.63;21.15;;;3.40;99.90;;;;;;5051193;28;20200;-45
2021/01/05 02:26:43;;;;;;;33.10;20.75;;;3.20;99.90;;;;;;5051399;28;20220;-48
2021/01/05 02:29:15;;;;;;;41.08;21.13;;;3.50;99.90;;;;;;5050955;28;20653;-45
2021/01/05 02:32:03;;;;;;;37.35;20.75;;;3.40;99.90;;;;;;5050926;28;20220;-46
2021/01/05 02:34:41;;;;;;;34.72;19.10;;;3.20;99.90;;;;;;5050375;28;20738;-48
2021/01/05 02:37:25;;;;;;;33.97;20.17;;;3.00;99.90;;;;;;5050814;28;20199;-45
2021/01/05 02:40:27;;;;;;;37.60;19.65;;;3.00;99.90;;;;;;5052295;28;20203;-48
2021/01/05 02:44:02;;;;;;;34.45;18.88;;;3.40;99.90;;;;;;5056590;28;20229;-46
2021/01/05 02:46:52;;;;;;;32.13;18.05;;;3.20;99.90;;;;;;5055892;28;20226;-45
2021/01/05 02:49:45;;;;;;;26.00;17.40;;;3.30;99.90;;;;;;5055853;28;20741;-46
2021/01/05 02:53:21;;;;;;;30.40;19.35;;;3.20;99.90;;;;;;5056420;28;20555;-45
2021/01/05 02:56:39;;;;;;;31.95;19.17;;;3.20;99.90;;;;;;5026953;28;20279;-47
2021/01/05 03:00:12;;;;;;;33.65;19.77;;;3.20;99.90;;;;;;5056289;28;20364;-46
2021/01/05 03:03:29;;;;;;;29.38;17.65;;;3.40;99.90;;;;;;5055714;28;20278;-46
2021/01/05 03:06:23;;;;;;;28.98;18.95;;;3.50;99.90;;;;;;5055968;28;20208;-44
2021/01/05 03:09:34;;;;;;;31.55;18.48;;;3.40;99.90;;;;;;5055656;28;20293;-43
2021/01/05 03:12:36;;;;;;;25.55;16.50;;;3.30;99.90;;;;;;5055522;28;20583;-45
2021/01/05 03:15:46;;;;;;;30.77;18.88;;;3.50;99.90;;;;;;4993905;28;20206;-43
2021/01/05 03:18:41;;;;;;;30.30;19.20;;;3.30;99.90;;;;;;4993491;28;20217;-46
2021/01/05 03:21:43;;;;;;;32.15;18.33;;;3.40;99.90;;;;;;5010459;28;20632;-44
2021/01/05 03:24:30;;;;;;;29.10;17.90;;;3.30;99.90;;;;;;5054828;28;20292;-47
2021/01/05 03:27:17;;;;;;;33.33;19.23;;;3.20;99.90;;;;;;5055133;28;20596;-44
2021/01/05 03:30:10;;;;;;;28.77;18.77;;;3.30;99.90;;;;;;5054948;28;20199;-46
2021/01/05 03:32:56;;;;;;;27.98;17.83;;;3.20;99.90;;;;;;5054704;28;20222;-48
2021/01/05 03:35:41;;;;;;;26.23;18.00;;;3.20;99.90;;;;;;5055024;28;20218;-46
2021/01/05 03:38:26;;;;;;;25.73;17.38;;;3.40;99.90;;;;;;5055566;28;20254;-46
2021/01/05 03:41:12;;;;;;;29.60;16.85;;;3.00;99.90;;;;;;5054594;28;20723;-47
2021/01/05 03:43:57;;;;;;;29.25;17.08;;;3.00;99.90;;;;;;5054295;28;20202;-45
2021/01/05 03:46:42;;;;;;;26.15;17.17;;;3.20;99.90;;;;;;5054052;28;20234;-47
2021/01/05 03:49:28;;;;;;;23.77;16.70;;;3.20;99.90;;;;;;5053501;28;20202;-47
2021/01/05 03:52:33;;;;;;;22.10;14.00;;;3.40;99.90;;;;;;4972166;28;20587;-45
2021/01/05 03:55:19;;;;;;;24.48;16.50;;;3.00;99.90;;;;;;4973620;28;20245;-47
2021/01/05 03:58:04;;;;;;;26.42;16.85;;;3.00;99.90;;;;;;5032394;28;20219;-47
2021/01/05 04:00:49;;;;;;;25.85;16.40;;;3.00;99.90;;;;;;5054277;28;20666;-43
2021/01/05 04:03:16;;;;;;;22.15;15.02;;;3.10;99.90;;;;;;5053958;28;20288;-47
2021/01/05 04:05:43;;;;;;;23.58;15.13;;;3.30;99.90;;;;;;5054110;28;20196;-46
2021/01/05 04:08:10;;;;;;;26.50;16.70;;;3.30;99.90;;;;;;5053907;28;20220;-47
2021/01/05 04:10:37;;;;;;;25.25;16.48;;;3.00;99.90;;;;;;5054394;28;20566;-42
2021/01/05 04:13:03;;;;;;;26.15;16.52;;;3.00;99.90;;;;;;5052622;28;20199;-46
2021/01/05 04:15:30;;;;;;;25.38;15.80;;;3.40;99.90;;;;;;5052700;28;20200;-47
2021/01/05 04:17:59;;;;;;;24.08;15.43;;;3.60;99.90;;;;;;5054161;28;20188;-46
2021/01/05 04:20:27;;;;;;;24.17;15.85;;;3.20;99.90;;;;;;5053847;28;20195;-44
2021/01/05 04:22:55;;;;;;;25.63;15.02;;;3.50;99.90;;;;;;5053071;28;20211;-43
2021/01/05 04:25:22;;;;;;;26.17;15.55;;;3.30;99.90;;;;;;5053719;28;20253;-46
2021/01/05 04:27:49;;;;;;;23.50;15.25;;;3.50;99.90;;;;;;5053783;28;20227;-45
2021/01/05 04:30:22;;;;;;;23.00;15.00;;;3.20;99.90;;;;;;5054092;28;20191;-45
2021/01/05 04:32:49;;;;;;;27.23;15.55;;;3.20;99.90;;;;;;5053611;28;20216;-47
2021/01/05 04:35:18;;;;;;;28.20;16.75;;;3.50;99.90;;;;;;5054010;28;20192;-45
2021/01/05 04:37:44;;;;;;;25.55;15.35;;;3.40;99.90;;;;;;5053747;28;20192;-46
2021/01/05 04:40:22;;;;;;;24.83;16.20;;;3.20;99.90;;;;;;5053470;28;20184;-47
2021/01/05 04:43:07;;;;;;;27.55;16.35;;;3.50;99.90;;;;;;5053003;28;20220;-46
2021/01/05 04:45:41;;;;;;;23.40;14.75;;;3.20;99.90;;;;;;5054010;28;20199;-45
2021/01/05 04:48:18;;;;;;;22.73;15.55;;;3.50;99.90;;;;;;5053424;28;20216;-47
2021/01/05 04:50:50;;;;;;;22.95;14.40;;;3.30;99.90;;;;;;5053311;28;20673;-47
2021/01/05 04:53:31;;;;;;;22.13;14.85;;;3.20;99.90;;;;;;5056706;28;20211;-46
2021/01/05 04:56:03;;;;;;;20.40;15.05;;;3.10;99.90;;;;;;5053322;28;20215;-46
2021/01/05 04:58:34;;;;;;;20.92;14.55;;;3.10;99.90;;;;;;5053559;28;20185;-46
2021/01/05 05:01:07;;;;;;;16.83;14.32;;;3.30;99.90;;;;;;5053153;28;20239;-47
2021/01/05 05:03:45;;;;;;;19.85;13.68;;;3.10;99.90;;;;;;5054168;28;20726;-44
2021/01/05 05:06:32;;;;;;;18.67;13.82;;;3.50;99.90;;;;;;5053058;28;20680;-44
2021/01/05 05:09:34;;;;;;;20.20;13.90;;;3.30;99.90;;;;;;5052850;28;20200;-46
2021/01/05 05:12:18;;;;;;;18.05;12.60;;;3.20;99.90;;;;;;5052040;28;20227;-47
2021/01/05 05:14:58;;;;;;;19.95;14.73;;;3.50;99.90;;;;;;5053779;28;20180;-45
2021/01/05 05:17:49;;;;;;;20.70;14.15;;;3.00;99.90;;;;;;5057045;28;20192;-45
2021/01/05 05:20:26;;;;;;;17.88;13.30;;;3.00;99.90;;;;;;5053585;28;20231;-48
2021/01/05 05:23:05;;;;;;;20.48;14.50;;;3.30;99.90;;;;;;5052800;28;20728;-46
2021/01/05 05:25:37;;;;;;;23.70;14.95;;;3.10;99.90;;;;;;5052505;28;20834;-45
2021/01/05 05:28:09;;;;;;;21.00;14.27;;;3.30;99.90;;;;;;5053207;28;20215;-45
2021/01/05 05:30:38;;;;;;;22.58;15.07;;;3.50;99.90;;;;;;5052642;28;20208;-45
2021/01/05 05:33:15;;;;;;;21.45;13.95;;;3.40;99.90;;;;;;5052381;28;20223;-45
2021/01/05 05:35:56;;;;;;;19.77;14.00;;;3.30;99.90;;;;;;5052682;28;20364;-46
2021/01/05 05:38:47;;;;;;;20.33;15.70;;;3.00;99.90;;;;;;5052527;28;20279;-44
2021/01/05 05:41:23;;;;;;;21.27;14.18;;;3.40;99.90;;;;;;5052764;28;20233;-47
2021/01/05 05:44:17;;;;;;;20.50;14.57;;;3.30;99.90;;;;;;5052392;28;20199;-45
2021/01/05 05:46:47;;;;;;;19.08;13.40;;;3.10;99.90;;;;;;5052723;28;20299;-45
2021/01/05 05:49:27;;;;;;;21.17;14.48;;;3.50;99.90;;;;;;5053094;28;20199;-45
2021/01/05 05:51:57;;;;;;;17.92;13.18;;;3.40;99.90;;;;;;5052097;28;20627;-44
2021/01/05 05:54:24;;;;;;;19.75;13.50;;;3.30;99.90;;;;;;5052354;28;20192;-44
2021/01/05 05:57:06;;;;;;;20.75;13.20;;;3.40;99.90;;;;;;5052591;28;20566;-45
2021/01/05 05:59:38;;;;;;;19.10;13.43;;;3.40;99.90;;;;;;5052315;28;20202;-45
2021/01/05 06:02:05;;;;;;;19.65;13.20;;;3.00;99.90;;;;;;5052219;28;20220;-46
2021/01/05 06:04:33;;;;;;;15.52;12.35;;;3.50;99.90;;;;;;5051685;28;20196;-45
2021/01/05 06:07:01;;;;;;;17.00;12.23;;;3.40;99.90;;;;;;5051694;28;20235;-47
2021/01/05 06:09:27;;;;;;;19.00;13.35;;;3.40;99.90;;;;;;5055454;28;20200;-46
2021/01/05 06:11:55;;;;;;;18.42;13.40;;;3.20;99.90;;;;;;5051820;28;20212;-47
2021/01/05 06:14:22;;;;;;;18.40;14.25;;;3.50;99.90;;;;;;5054272;28;20200;-47
2021/01/05 06:16:49;;;;;;;17.35;12.93;;;3.40;99.90;;;;;;5056939;28;20200;-47
2021/01/05 06:19:16;;;;;;;20.23;12.82;;;3.10;99.90;;;;;;5061636;28;20366;-46
2021/01/05 06:21:43;;;;;;;17.30;12.82;;;3.50;99.90;;;;;;5058307;28;20238;-46
2021/01/05 06:24:09;;;;;;;20.77;13.85;;;3.30;99.90;;;;;;5057271;28;20250;-46
2021/01/05 06:26:36;;;;;;;18.73;12.98;;;3.30;99.90;;;;;;5058539;28;20192;-44
2021/01/05 06:29:02;;;;;;;19.90;13.57;;;3.50;99.90;;;;;;5058902;28;20665;-47
2021/01/05 06:31:29;;;;;;;22.25;14.75;;;3.30;99.90;;;;;;5058861;28;20311;-47
2021/01/05 06:33:56;;;;;;;21.33;15.10;;;3.50;99.90;;;;;;5058957;28;20192;-44
2021/01/05 06:36:23;;;;;;;20.70;14.85;;;3.20;99.90;;;;;;5059283;28;20270;-44
2021/01/05 06:38:50;;;;;;;21.60;14.50;;;3.30;99.90;;;;;;5058645;28;20271;-43
2021/01/05 06:41:17;;;;;;;24.63;16.05;;;3.30;99.90;;;;;;5058486;28;20211;-45
2021/01/05 06:43:43;;;;;;;25.15;15.70;;;3.50;99.90;;;;;;5058672;28;20203;-45
2021/01/05 06:46:11;;;;;;;28.05;17.13;;;3.50;99.90;;;;;;5058742;28;20661;-46
2021/01/05 06:48:37;;;;;;;24.90;16.60;;;3.60;99.90;;;;;;5059758;28;20239;-45
2021/01/05 06:51:05;;;;;;;25.38;16.60;;;3.30;99.90;;;;;;5058921;28;20245;-46
2021/01/05 06:53:31;;;;;;;33.92;18.55;;;3.40;99.90;;;;;;5058460;28;20210;-47
2021/01/05 06:55:58;;;;;;;28.08;17.88;;;3.30;99.90;;;;;;5059365;28;20690;-45
2021/01/05 06:58:24;;;;;;;34.45;20.00;;;3.60;99.90;;;;;;5059104;28;20203;-44
2021/01/05 07:00:51;;;;;;;31.92;20.27;;;3.50;99.90;;;;;;5059492;28;20243;-45
2021/01/05 07:03:18;;;;;;;31.13;17.17;;;3.30;99.90;;;;;;5058915;28;20200;-45
2021/01/05 07:05:44;;;;;;;31.75;19.38;;;3.50;99.90;;;;;;5059058;28;20212;-47
2021/01/05 07:08:12;;;;;;;37.58;19.33;;;3.50;99.90;;;;;;5058835;28;20654;-45
2021/01/05 07:10:39;;;;;;;31.85;18.67;;;3.30;99.90;;;;;;5058362;28;20278;-44
2021/01/05 07:13:05;;;;;;;31.45;17.17;;;3.30;99.90;;;;;;5059160;28;20196;-45
2021/01/05 07:15:32;;;;;;;32.28;18.83;;;3.20;99.90;;;;;;5058597;28;20234;-47
2021/01/05 07:17:59;;;;;;;35.78;18.63;;;3.20;99.90;;;;;;5057141;28;20207;-45
2021/01/05 07:20:26;;;;;;;36.05;19.67;;;3.50;99.90;;;;;;5058152;28;20203;-46
2021/01/05 07:22:52;;;;;;;34.10;18.75;;;3.20;99.90;;;;;;5057595;28;20273;-47
2021/01/05 07:25:20;;;;;;;34.63;20.98;;;3.40;99.90;;;;;;5058031;28;20268;-47
2021/01/05 07:27:47;;;;;;;33.38;19.92;;;3.20;99.90;;;;;;5062710;28;20718;-47
2021/01/05 07:30:14;;;;;;;32.80;19.90;;;3.50;99.90;;;;;;5055406;28;20192;-41
2021/01/05 07:32:41;;;;;;;32.90;19.90;;;3.30;99.90;;;;;;5055110;28;20228;-43
2021/01/05 07:35:10;;;;;;;33.45;18.63;;;3.20;99.90;;;;;;5055827;28;20204;-44
2021/01/05 07:37:39;;;;;;;35.92;21.55;;;3.50;99.90;;;;;;5055284;28;20309;-45
2021/01/05 07:40:07;;;;;;;33.38;19.98;;;3.30;99.90;;;;;;5054319;28;20210;-44
2021/01/05 07:42:35;;;;;;;30.83;19.35;;;3.40;99.90;;;;;;5056475;28;20246;-43
2021/01/05 07:45:05;;;;;;;31.40;19.73;;;3.40;99.90;;;;;;5055670;28;20196;-43
2021/01/05 07:47:34;;;;;;;28.90;18.88;;;3.40;99.90;;;;;;5055222;28;20220;-42
2021/01/05 07:50:01;;;;;;;36.22;18.83;;;3.10;99.90;;;;;;5054914;28;20237;-44
2021/01/05 07:52:34;;;;;;;36.63;18.48;;;3.50;99.90;;;;;;5054900;28;20695;-47
2021/01/05 07:55:03;;;;;;;30.95;18.55;;;3.40;99.90;;;;;;5054450;28;20199;-46
2021/01/05 07:57:30;;;;;;;37.85;20.60;;;3.30;99.90;;;;;;5055006;28;20196;-43
2021/01/05 07:59:57;;;;;;;31.23;19.27;;;3.20;99.90;;;;;;5054567;28;20294;-46
2021/01/05 08:02:24;;;;;;;36.95;20.60;;;3.40;99.90;;;;;;5055054;28;20216;-43
2021/01/05 08:04:52;;;;;;;34.22;19.55;;;3.40;99.90;;;;;;5055514;28;20645;-44
2021/01/05 08:07:18;;;;;;;39.00;21.33;;;3.50;99.90;;;;;;5053964;28;20782;-43
2021/01/05 08:09:45;;;;;;;41.60;21.50;;;3.40;99.90;;;;;;5053695;28;20568;-45
2021/01/05 08:12:13;;;;;;;34.88;20.08;;;3.40;99.90;;;;;;5054375;28;20719;-43
2021/01/05 08:14:41;;;;;;;34.28;21.75;;;3.20;99.90;;;;;;5053150;28;20195;-43
2021/01/05 08:17:09;;;;;;;37.10;19.95;;;3.30;99.90;;;;;;5054360;28;20196;-46
2021/01/05 08:19:36;;;;;;;40.42;22.75;;;3.20;99.90;;;;;;5053784;28;20591;-43
2021/01/05 08:22:03;;;;;;;34.60;18.15;;;3.30;99.90;;;;;;5054662;28;20219;-47
2021/01/05 08:24:30;;;;;;;35.92;20.17;;;3.00;99.90;;;;;;5053572;28;20275;-46
2021/01/05 08:26:57;;;;;;;40.50;21.58;;;3.20;99.90;;;;;;5053674;28;20196;-45
2021/01/05 08:29:24;;;;;;;41.15;21.38;;;3.50;99.90;;;;;;5053774;28;20615;-45
2021/01/05 08:31:51;;;;;;;40.40;21.15;;;3.30;99.90;;;;;;5053268;28;20255;-47
2021/01/05 08:34:19;;;;;;;36.78;19.77;;;3.60;99.90;;;;;;5052870;28;20688;-47
2021/01/05 08:36:46;;;;;;;40.63;21.88;;;3.40;99.90;;;;;;5051915;28;20249;-44
2021/01/05 08:39:13;;;;;;;40.85;20.88;;;3.80;99.90;;;;;;5052605;28;20199;-45
2021/01/05 08:41:41;;;;;;;34.72;19.90;;;3.30;99.90;;;;;;5053302;28;20592;-43
2021/01/05 08:44:09;;;;;;;37.05;22.48;;;3.50;99.90;;;;;;5053420;28;20741;-44
2021/01/05 08:46:36;;;;;;;41.05;21.98;;;3.70;99.90;;;;;;5054003;28;20587;-44
2021/01/05 08:49:03;;;;;;;37.20;20.88;;;3.60;99.90;;;;;;5054020;28;20242;-43
2021/01/05 08:51:33;;;;;;;34.35;21.77;;;3.70;99.90;;;;;;5053529;28;20303;-47
2021/01/05 08:54:00;;;;;;;43.88;22.95;;;3.70;99.90;;;;;;5054166;28;20257;-45
2021/01/05 08:56:29;;;;;;;38.10;21.92;;;3.80;99.90;;;;;;5053609;28;20215;-45
2021/01/05 08:58:56;;;;;;;38.22;22.00;;;3.50;99.90;;;;;;5054153;28;20238;-47
2021/01/05 09:01:24;;;;;;;35.90;20.50;;;3.70;99.90;;;;;;5054404;28;20611;-45
2021/01/05 09:03:51;;;;;;;32.47;19.30;;;3.40;99.90;;;;;;5054416;28;20232;-44
2021/01/05 09:06:22;;;;;;;32.63;21.00;;;3.50;99.90;;;;;;5054334;28;20206;-47
2021/01/05 09:08:51;;;;;;;37.95;19.75;;;3.70;99.90;;;;;;5053314;28;20223;-47
2021/01/05 09:11:19;;;;;;;39.50;20.33;;;3.80;99.90;;;;;;5053280;28;20246;-45
2021/01/05 09:13:47;;;;;;;35.28;20.92;;;3.60;99.90;;;;;;5052699;28;20219;-46
2021/01/05 09:16:22;;;;;;;35.45;21.27;;;3.50;99.90;;;;;;5052591;28;20196;-46
2021/01/05 09:18:50;;;;;;;28.60;18.98;;;3.70;99.90;;;;;;5052466;28;20192;-44
2021/01/05 09:21:18;;;;;;;32.05;18.75;;;3.60;99.90;;;;;;5053763;28;20219;-47
2021/01/05 09:23:44;;;;;;;36.75;22.48;;;3.50;99.90;;;;;;5052689;28;20200;-47
2021/01/05 09:26:20;;;;;;;36.65;20.42;;;3.60;99.90;;;;;;5063358;28;20195;-45
2021/01/05 09:28:48;;;;;;;27.48;18.20;;;3.50;99.90;;;;;;5053900;28;20223;-46
2021/01/05 09:31:15;;;;;;;29.20;20.25;;;3.70;99.90;;;;;;5052975;28;20660;-47
2021/01/05 09:33:42;;;;;;;30.20;19.70;;;3.50;99.90;;;;;;5051524;28;20219;-45
2021/01/05 09:36:11;;;;;;;27.88;18.50;;;3.40;99.90;;;;;;5052460;28;20241;-47
2021/01/05 09:38:39;;;;;;;27.88;18.73;;;3.40;99.90;;;;;;5052167;28;20192;-46
2021/01/05 09:41:07;;;;;;;26.85;18.00;;;3.50;99.90;;;;;;5052269;28;20684;-45
2021/01/05 09:43:34;;;;;;;28.38;17.65;;;3.40;99.90;;;;;;5051884;28;20199;-46
2021/01/05 09:46:02;;;;;;;27.13;17.52;;;3.20;99.90;;;;;;5052227;28;20565;-46
2021/01/05 09:48:29;;;;;;;27.70;18.17;;;3.70;99.90;;;;;;5051870;28;20219;-48
2021/01/05 09:50:56;;;;;;;30.65;20.02;;;3.60;99.90;;;;;;5050990;28;20215;-44
2021/01/05 09:53:23;;;;;;;31.80;20.02;;;3.50;99.90;;;;;;5051656;28;20282;-47
2021/01/05 09:55:50;;;;;;;29.45;19.60;;;3.60;99.90;;;;;;5051705;28;20202;-47
2021/01/05 09:58:17;;;;;;;29.83;18.63;;;3.60;99.90;;;;;;5051792;28;20188;-47
2021/01/05 10:00:44;;;;;;;36.35;20.35;;;3.50;99.90;;;;;;5052412;28;20199;-45
2021/01/05 10:03:11;;;;;;;29.90;19.25;;;3.60;99.90;;;;;;5051486;28;20202;-47
2021/01/05 10:05:38;;;;;;;28.95;18.75;;;3.80;99.90;;;;;;5051702;28;20207;-47
2021/01/05 10:08:06;;;;;;;29.23;19.17;;;3.50;99.90;;;;;;5052177;28;20688;-47
2021/01/05 10:10:33;;;;;;;34.17;18.98;;;3.20;99.90;;;;;;5051756;28;20218;-45
2021/01/05 10:12:59;;;;;;;33.58;20.23;;;3.20;99.90;;;;;;5051532;28;20239;-48
2021/01/05 10:15:26;;;;;;;25.25;16.20;;;3.60;99.90;;;;;;5051784;28;20207;-47
2021/01/05 10:17:54;;;;;;;31.85;17.73;;;3.30;99.90;;;;;;5051756;28;20198;-48
2021/01/05 10:20:22;;;;;;;26.98;18.40;;;3.30;99.90;;;;;;5051864;28;20195;-47
2021/01/05 10:22:51;;;;;;;33.53;19.55;;;3.30;99.90;;;;;;5051360;28;20235;-47
2021/01/05 10:25:19;;;;;;;31.05;19.40;;;3.70;99.90;;;;;;5052013;28;20275;-47
2021/01/05 10:27:46;;;;;;;31.88;19.63;;;3.60;99.90;;;;;;5052130;28;20269;-47
2021/01/05 10:30:14;;;;;;;34.45;19.20;;;3.80;99.90;;;;;;5052227;28;20631;-44
2021/01/05 10:32:42;;;;;;;32.63;19.55;;;3.60;99.90;;;;;;5052355;28;20222;-42
2021/01/05 10:35:11;;;;;;;34.90;21.08;;;3.60;99.90;;;;;;5052551;28;20755;-44
2021/01/05 10:37:38;;;;;;;32.38;19.50;;;3.50;99.90;;;;;;5052523;28;20633;-46
2021/01/05 10:40:08;;;;;;;37.42;21.00;;;3.60;99.90;;;;;;5051918;28;20285;-46
2021/01/05 10:42:35;;;;;;;30.92;19.02;;;3.60;99.90;;;;;;5050937;28;20756;-47
2021/01/05 10:45:02;;;;;;;34.35;19.58;;;3.60;99.90;;;;;;5051561;28;20226;-45
2021/01/05 10:47:29;;;;;;;33.90;19.90;;;3.80;99.90;;;;;;5051778;28;20236;-46
2021/01/05 10:49:56;;;;;;;35.88;20.20;;;3.70;99.90;;;;;;5051415;28;20216;-45
2021/01/05 10:52:23;;;;;;;31.00;19.58;;;3.70;99.90;;;;;;5050948;28;20212;-47
2021/01/05 10:54:50;;;;;;;38.85;20.90;;;3.70;99.90;;;;;;5051818;28;20667;-48
2021/01/05 10:57:18;;;;;;;31.02;19.27;;;3.80;99.90;;;;;;5051614;28;20684;-46
2021/01/05 10:59:45;;;;;;;38.00;21.05;;;3.70;99.90;;;;;;5051608;28;20668;-47
2021/01/05 11:02:11;;;;;;;28.30;17.58;;;3.50;99.90;;;;;;5052375;28;20212;-44
2021/01/05 11:04:38;;;;;;;31.00;18.95;;;3.80;99.90;;;;;;5055812;28;20622;-45
2021/01/05 11:07:07;;;;;;;28.85;18.33;;;3.60;99.90;;;;;;5054749;28;20195;-48
2021/01/05 11:09:35;;;;;;;29.23;18.42;;;3.50;99.90;;;;;;5055126;28;20326;-46
2021/01/05 11:12:05;;;;;;;28.25;18.60;;;3.70;99.90;;;;;;5054966;28;20236;-47
2021/01/05 11:14:32;;;;;;;32.95;19.58;;;3.90;99.90;;;;;;5054248;28;20605;-47
2021/01/05 11:16:59;;;;;;;30.00;18.55;;;3.90;99.90;;;;;;5054720;28;20307;-48
2021/01/05 11:19:26;;;;;;;29.63;19.27;;;4.00;99.90;;;;;;5054983;28;20258;-45
2021/01/05 11:21:55;;;;;;;30.58;18.20;;;3.80;99.90;;;;;;5054928;28;20234;-45
2021/01/05 11:24:22;;;;;;;31.15;18.17;;;3.90;99.90;;;;;;5054733;28;20192;-48
2021/01/05 11:26:50;;;;;;;34.92;18.55;;;3.80;99.90;;;;;;5054705;28;20283;-46
2021/01/05 11:29:17;;;;;;;24.73;18.10;;;3.70;99.90;;;;;;5054834;28;20216;-48
2021/01/05 11:31:44;;;;;;;28.77;18.00;;;3.60;99.90;;;;;;5054004;28;20220;-46
2021/01/05 11:34:11;;;;;;;29.25;18.52;;;3.90;99.90;;;;;;5054933;28;20250;-47
2021/01/05 11:36:38;;;;;;;30.60;17.50;;;3.90;99.90;;;;;;5055054;28;20196;-44
2021/01/05 11:39:06;;;;;;;29.45;17.63;;;3.70;99.90;;;;;;5055124;28;20249;-48
2021/01/05 11:41:36;;;;;;;31.23;19.50;;;3.60;99.90;;;;;;5055283;28;20247;-47
2021/01/05 11:44:05;;;;;;;31.20;18.63;;;3.50;99.90;;;;;;5054687;28;20253;-45
2021/01/05 11:46:32;;;;;;;30.50;18.67;;;3.60;99.90;;;;;;5053881;28;20294;-46
2021/01/05 11:48:59;;;;;;;32.38;19.02;;;3.70;99.90;;;;;;5053933;28;20212;-47
2021/01/05 11:51:29;;;;;;;27.83;18.30;;;3.70;99.90;;;;;;5053414;28;20223;-48
2021/01/05 11:53:56;;;;;;;29.00;18.17;;;3.70;99.90;;;;;;5053685;28;20204;-45
2021/01/05 11:56:27;;;;;;;30.38;17.38;;;3.60;99.90;;;;;;5053898;28;20196;-44
2021/01/05 11:58:54;;;;;;;33.08;18.23;;;3.50;99.90;;;;;;5053835;28;20176;-48
2021/01/05 12:01:22;;;;;;;28.05;18.48;;;3.80;99.90;;;;;;5053673;28;20212;-46
2021/01/05 12:03:49;;;;;;;28.75;17.98;;;4.00;99.90;;;;;;5053548;28;20200;-48
2021/01/05 12:06:18;;;;;;;30.63;18.70;;;4.00;99.90;;;;;;5053921;28;20234;-46
2021/01/05 12:08:46;;;;;;;26.73;17.63;;;3.50;99.90;;;;;;5053768;28;20227;-46
2021/01/05 12:11:18;;;;;;;29.70;18.98;;;3.70;99.90;;;;;;5053481;28;20212;-46
2021/01/05 12:13:44;;;;;;;28.25;19.23;;;3.50;99.90;;;;;;5052515;28;20266;-47
2021/01/05 12:16:11;;;;;;;31.73;17.25;;;3.50;99.90;;;;;;5052233;28;20203;-43
2021/01/05 12:18:39;;;;;;;26.77;18.67;;;3.80;99.90;;;;;;5053535;28;20246;-46
2021/01/05 12:21:06;;;;;;;25.55;17.58;;;3.50;99.90;;;;;;5054289;28;20223;-45
2021/01/05 12:23:32;;;;;;;31.77;18.75;;;3.80;99.90;;;;;;5053956;28;20196;-46
2021/01/05 12:25:59;;;;;;;29.15;17.95;;;3.90;99.90;;;;;;5054068;28;20579;-44
2021/01/05 12:28:26;;;;;;;30.52;18.15;;;3.60;99.90;;;;;;5053680;28;20685;-47
2021/01/05 12:30:52;;;;;;;31.42;18.20;;;3.70;99.90;;;;;;5054145;28;20199;-46
2021/01/05 12:33:19;;;;;;;27.27;17.27;;;3.60;99.90;;;;;;5053486;28;20203;-45
2021/01/05 12:35:47;;;;;;;31.38;18.00;;;3.70;99.90;;;;;;5053740;28;20198;-46
2021/01/05 12:38:13;;;;;;;35.55;20.02;;;3.80;99.90;;;;;;5053928;28;20227;-45
2021/01/05 12:40:40;;;;;;;33.85;17.60;;;3.70;99.90;;;;;;5053267;28;20223;-46
2021/01/05 12:43:07;;;;;;;26.27;16.08;;;3.50;99.90;;;;;;5052840;28;20235;-44
2021/01/05 12:45:34;;;;;;;27.80;18.20;;;3.70;99.90;;;;;;5053873;28;20265;-45
2021/01/05 12:48:00;;;;;;;33.88;21.05;;;3.60;99.90;;;;;;5053327;28;20212;-45
2021/01/05 12:50:27;;;;;;;39.80;20.10;;;3.80;99.90;;;;;;5053801;28;20220;-47
2021/01/05 12:52:54;;;;;;;35.38;19.25;;;3.80;99.90;;;;;;5051430;28;20229;-45
2021/01/05 12:55:22;;;;;;;33.85;17.73;;;3.70;99.90;;;;;;5053744;28;20599;-43
2021/01/05 12:57:49;;;;;;;34.60;18.92;;;3.60;99.90;;;;;;5053680;28;20188;-42
2021/01/05 13:00:19;;;;;;;30.23;18.52;;;3.70;99.90;;;;;;5053226;28;20192;-44
2021/01/05 13:02:45;;;;;;;32.13;18.80;;;3.90;99.90;;;;;;5052572;28;20208;-46